Durango, CO

1:54 AM MST on March 01, 2015 (GMT -0700)
Tecolote | Change Station
CLOSE
Current Station
Personal Weather Station
Location: Durango, CO
Elevation: 7211 ft
Nearby Weather Stations
Active Advisory: Winter Storm Warning Active Notice: Local Storm Report

Elev 7211 ft 37.27 °N, 107.74 °W | Updated 18 seconds ago

Snow
Snow
30.0 °F
Feels Like 30 °F
N
0.0
Wind Variable Wind from SE
Gusts 2.2 mph

Today
High -- | Low -- °F
--% Chance of Precip.
Yesterday
High -- | Low -- °F
Precip. -- in
6:42 AM 6:04 PM
Waxing Gibbous, 83% visible
Pressure 30.00 in
Visibility 0.5 miles
Clouds Scattered Clouds 200 ft
Mostly Cloudy 1800 ft
Overcast 5500 ft
Windchill 30 °F
Dew Point 27 °F
Humidity 87%
Rainfall 0.00 in
Snow Depth Not available.
UV 0 out of 12
Pollen 1.00 out of 12
Air Quality Not available.
Flu Activity Not available.
SPECI KDRO 010834Z AUTO 00000KT 1/2SM FZFG SCT002 BKN018 OVC055 M02/M02 A3000 RMK AO2 T10171022

More Conditions Fewer Conditions

Pressure 30.00 in
Visibility 0.5 miles
Clouds Scattered Clouds 200 ft
Mostly Cloudy 1800 ft
Overcast 5500 ft
Windchill 30 °F
Dew Point 27 °F
Humidity 87%
Rainfall 0.00 in
Snow Depth Not available.
UV 0 out of 12
Pollen 1.00 out of 12
Air Quality Not available.
Flu Activity Not available.
SPECI KDRO 010834Z AUTO 00000KT 1/2SM FZFG SCT002 BKN018 OVC055 M02/M02 A3000 RMK AO2 T10171022

More Conditions Fewer Conditions

10-Day Weather Forecast

Almanac

Astronomy

Mar. 01, 2015 Rise Set
Actual Time
Civil Twilight
Nautical Twilight
Astronomical Twilight
Moon
Length of Visible Light
Length of Day
Tomorrow will be .
, % of the Moon is Illuminated

Today's Extremes

State Highs State Lows

Community

WunderPhotos

Upload Photos

1,801,350 photos uploaded!

WunderBlogs® & News

Nearby

Air Quality

  Air Quality AQ Index Pollutant
Not available.

Snow Depth

Station Depth Elevation

Earthquake Activity

City Distance Mag. Time & Date
Minimum magnitude displayed is 2.5.

Coastal Water Temperatures

Place Temperature

Nearby Weather Stations

Winter Storm Warning
Statement as of 7:50 PM MST on February 28, 2015

... Winter Storm Warning remains in effect until 8 PM MST Monday...

* locations include the cities of... Durango... Bayfield... Ignacio.

* Timing... periods of snow will continue through Monday
evening... though there will also be lulls in the activity
with little or just light snowfall.

* Snow accumulation... 1 to 2 feet through Monday.

* Snow levels... may see rain or a rain snow mix in the
afternoons below 7000 feet.

* Winds... south to southwest winds 10 to 15 mph on Monday.

* Visibility... restricted at times in heavy snow.

* Impacts... travel is expected to become difficult this weekend
through Tuesday.

Precautionary/preparedness actions...

A Winter Storm Warning means significant amounts of snow are
expected or occurring. Strong winds and blowing snow are also
possible. This will make travel very hazardous or impossible.